createdAt,value
2018-07-31T00:00:59.598Z,11.00
2018-07-31T00:01:59.585Z,7.50
2018-07-31T00:02:59.574Z,12.00
2018-07-31T00:03:59.577Z,8.90
2018-07-31T00:04:59.556Z,8.00
2018-07-31T00:05:59.546Z,8.70
2018-07-31T00:06:59.537Z,8.10
2018-07-31T00:07:59.532Z,8.20
2018-07-31T00:08:59.513Z,8.20
2018-07-31T00:09:59.543Z,7.80
2018-07-31T00:10:59.498Z,7.10
2018-07-31T00:11:59.483Z,5.80
2018-07-31T00:12:59.481Z,6.20
2018-07-31T00:13:59.462Z,7.40
2018-07-31T00:14:59.450Z,8.40
2018-07-31T00:15:59.443Z,8.10
2018-07-31T00:16:59.430Z,7.70
2018-07-31T00:17:59.421Z,10.10
2018-07-31T00:18:59.421Z,8.30
2018-07-31T00:19:59.399Z,10.20
2018-07-31T00:20:59.388Z,8.10
2018-07-31T00:21:59.381Z,7.60
2018-07-31T00:22:59.377Z,10.40
2018-07-31T00:23:59.359Z,9.30
2018-07-31T00:24:59.352Z,8.90
2018-07-31T00:26:43.464Z,9.40
2018-07-31T00:27:43.458Z,8.10
2018-07-31T00:28:43.449Z,7.90
2018-07-31T00:29:43.431Z,5.60
2018-07-31T00:30:43.429Z,8.90
2018-07-31T00:31:43.416Z,6.20
2018-07-31T00:32:43.568Z,7.80
2018-07-31T00:33:43.388Z,10.70
2018-07-31T00:34:43.387Z,9.20
2018-07-31T00:35:43.372Z,10.10
2018-07-31T00:36:43.359Z,8.50
2018-07-31T00:37:43.350Z,9.60
2018-07-31T00:38:43.336Z,10.10
2018-07-31T00:39:43.323Z,6.80
2018-07-31T00:40:43.314Z,7.20
2018-07-31T00:41:43.304Z,7.40
2018-07-31T00:42:43.292Z,6.50
2018-07-31T00:43:43.286Z,8.90
2018-07-31T00:44:43.269Z,10.60
2018-07-31T00:45:43.261Z,10.20
2018-07-31T00:46:43.277Z,6.90
2018-07-31T00:47:43.240Z,7.70
2018-07-31T00:48:43.229Z,10.00
2018-07-31T00:49:43.217Z,10.30
2018-07-31T00:50:43.205Z,10.00
2018-07-31T00:51:43.202Z,8.20
2018-07-31T00:52:43.183Z,10.30
2018-07-31T00:53:43.175Z,9.80
2018-07-31T00:54:43.164Z,6.90
2018-07-31T00:55:43.151Z,9.60
2018-07-31T00:56:43.144Z,8.00
2018-07-31T00:57:43.146Z,8.30
2018-07-31T00:58:43.131Z,9.50
2018-07-31T00:59:43.107Z,12.70
2018-07-31T01:00:43.099Z,8.80
2018-07-31T01:01:43.089Z,8.40
2018-07-31T01:02:43.088Z,11.10
2018-07-31T01:03:43.064Z,9.00
2018-07-31T01:04:43.055Z,10.20
2018-07-31T01:05:43.051Z,7.90
2018-07-31T01:06:43.040Z,9.10
2018-07-31T01:07:46.660Z,10.30
2018-07-31T01:08:43.010Z,7.90
2018-07-31T01:09:46.635Z,11.50
2018-07-31T01:10:42.999Z,9.70
2018-07-31T01:12:42.441Z,7.00
2018-07-31T01:13:42.418Z,9.50
2018-07-31T01:14:42.406Z,9.00
2018-07-31T01:15:42.395Z,12.20
2018-07-31T01:16:42.387Z,9.30
2018-07-31T01:17:42.372Z,7.80
2018-07-31T01:18:42.365Z,8.30
2018-07-31T01:19:42.350Z,6.80
2018-07-31T01:20:42.341Z,8.80
2018-07-31T01:21:42.331Z,12.90
2018-07-31T01:22:42.320Z,9.70
2018-07-31T01:23:42.309Z,8.20
2018-07-31T01:24:42.296Z,10.90
2018-07-31T01:25:42.283Z,9.00
2018-07-31T01:26:42.273Z,15.30
2018-07-31T01:27:42.344Z,9.30
2018-07-31T01:29:15.461Z,8.80
2018-07-31T01:29:42.240Z,10.30
2018-07-31T01:30:42.232Z,12.00
2018-07-31T01:31:42.218Z,9.10
2018-07-31T01:32:42.208Z,9.70
2018-07-31T01:33:42.200Z,9.40
2018-07-31T01:34:42.183Z,13.60
2018-07-31T01:35:42.172Z,9.10
2018-07-31T01:36:42.164Z,11.30
2018-07-31T01:37:42.151Z,12.80
2018-07-31T01:38:44.762Z,10.10
2018-07-31T01:39:42.128Z,9.40
2018-07-31T01:40:42.120Z,10.70
2018-07-31T01:41:42.106Z,12.70
2018-07-31T01:42:42.093Z,11.80
2018-07-31T01:43:42.084Z,12.10
2018-07-31T01:44:42.071Z,10.10
2018-07-31T01:45:42.082Z,10.90
2018-07-31T01:46:42.049Z,11.50
2018-07-31T01:47:42.041Z,10.50
2018-07-31T01:48:42.030Z,11.40
2018-07-31T01:49:42.017Z,14.30
2018-07-31T01:50:42.008Z,11.10
2018-07-31T01:51:41.995Z,10.30
2018-07-31T01:52:41.992Z,11.20
2018-07-31T01:53:41.971Z,13.20
2018-07-31T01:54:41.970Z,11.90
2018-07-31T01:55:41.947Z,13.80
2018-07-31T01:56:41.938Z,13.90
2018-07-31T01:57:41.932Z,11.20
2018-07-31T01:58:41.915Z,18.80
2018-07-31T01:59:41.944Z,13.90
2018-07-31T02:00:41.897Z,15.60
2018-07-31T02:01:41.884Z,14.60
2018-07-31T02:02:41.870Z,14.50
2018-07-31T02:03:41.857Z,12.70
2018-07-31T02:04:41.847Z,12.90
2018-07-31T02:05:41.839Z,14.20
2018-07-31T02:06:41.826Z,11.30
2018-07-31T02:07:41.966Z,16.60
2018-07-31T02:08:41.832Z,18.40
2018-07-31T02:09:41.791Z,15.30
2018-07-31T02:10:41.779Z,12.60
2018-07-31T02:11:45.023Z,14.00
2018-07-31T02:12:41.754Z,14.70
2018-07-31T02:13:41.750Z,15.80
2018-07-31T02:14:41.732Z,12.90
2018-07-31T02:15:41.726Z,12.10
2018-07-31T02:16:44.331Z,16.30
2018-07-31T02:17:41.706Z,14.50
2018-07-31T02:18:41.697Z,13.80
2018-07-31T02:19:41.673Z,19.80
2018-07-31T02:20:41.662Z,16.20
2018-07-31T02:21:41.657Z,15.50
2018-07-31T02:22:41.644Z,19.50
2018-07-31T02:23:41.779Z,15.30
2018-07-31T02:24:41.617Z,16.40
2018-07-31T02:25:41.608Z,15.70
2018-07-31T02:26:41.627Z,14.50
2018-07-31T02:27:41.600Z,15.30
2018-07-31T02:28:41.605Z,15.60
2018-07-31T02:29:41.563Z,14.30
2018-07-31T02:30:41.554Z,16.70
2018-07-31T02:31:41.537Z,15.60
2018-07-31T02:32:41.524Z,15.30
2018-07-31T02:33:41.512Z,18.80
2018-07-31T02:34:41.503Z,18.70
2018-07-31T02:35:41.490Z,18.30
2018-07-31T02:36:41.480Z,16.10
2018-07-31T02:37:41.470Z,17.50
2018-07-31T02:38:41.467Z,19.00
2018-07-31T02:39:41.443Z,15.50
2018-07-31T02:40:41.430Z,18.30
2018-07-31T02:41:41.425Z,17.50
2018-07-31T02:42:41.406Z,16.30
2018-07-31T02:43:41.395Z,21.00
2018-07-31T02:44:41.385Z,15.50
2018-07-31T02:45:41.373Z,18.80
2018-07-31T02:46:41.361Z,14.70
2018-07-31T02:47:41.435Z,19.80
2018-07-31T02:48:41.340Z,20.00
2018-07-31T02:49:41.331Z,22.40
2018-07-31T02:50:41.316Z,15.50
2018-07-31T02:51:41.304Z,22.50
2018-07-31T02:52:41.293Z,16.70
2018-07-31T02:53:41.289Z,20.90
2018-07-31T02:54:41.269Z,18.10
2018-07-31T02:55:41.260Z,19.90
2018-07-31T02:57:35.389Z,22.30
2018-07-31T02:58:35.377Z,24.30
2018-07-31T02:59:35.361Z,22.40
2018-07-31T03:00:35.362Z,29.40
2018-07-31T03:01:35.346Z,21.50
2018-07-31T03:02:35.327Z,19.50
2018-07-31T03:03:35.338Z,25.20
2018-07-31T03:04:35.305Z,23.30
2018-07-31T03:05:35.299Z,22.10
2018-07-31T03:06:35.281Z,20.30
2018-07-31T03:07:35.268Z,22.20
2018-07-31T03:08:35.262Z,21.60
2018-07-31T03:09:35.248Z,25.90
2018-07-31T03:10:35.234Z,26.50
2018-07-31T03:11:35.224Z,24.20
2018-07-31T03:12:35.212Z,27.20
2018-07-31T03:13:35.198Z,27.30
2018-07-31T03:14:35.188Z,27.40
2018-07-31T03:15:35.172Z,28.60
2018-07-31T03:16:35.199Z,26.90
2018-07-31T03:17:35.149Z,26.70
2018-07-31T03:18:35.145Z,25.70
2018-07-31T03:19:35.164Z,26.90
2018-07-31T03:20:35.124Z,29.60
2018-07-31T03:21:35.111Z,27.20
2018-07-31T03:22:35.097Z,27.10
2018-07-31T03:23:35.090Z,27.70
2018-07-31T03:24:35.069Z,25.60
2018-07-31T03:25:35.059Z,26.10
2018-07-31T03:26:35.046Z,24.00
2018-07-31T03:27:35.036Z,24.70
2018-07-31T03:28:35.021Z,28.80
2018-07-31T03:29:35.016Z,27.20
2018-07-31T03:30:35.008Z,26.60
2018-07-31T03:31:34.986Z,27.80
2018-07-31T03:33:08.186Z,25.90
2018-07-31T03:33:34.960Z,30.20
2018-07-31T03:34:34.949Z,25.10
2018-07-31T03:35:34.938Z,33.40
2018-07-31T03:36:34.926Z,23.20
2018-07-31T03:37:34.915Z,29.90
2018-07-31T03:38:34.902Z,26.90
2018-07-31T03:39:34.888Z,33.70
2018-07-31T03:40:35.047Z,27.70
2018-07-31T03:42:08.075Z,27.80
2018-07-31T03:42:38.284Z,28.00
2018-07-31T03:43:34.910Z,27.50
2018-07-31T03:44:34.834Z,31.60
2018-07-31T03:45:34.821Z,32.20
2018-07-31T03:46:34.807Z,28.80
2018-07-31T03:47:34.795Z,27.70
2018-07-31T03:48:34.785Z,24.90
2018-07-31T03:49:34.769Z,31.10
2018-07-31T03:50:34.756Z,26.00
2018-07-31T03:51:34.744Z,28.60
2018-07-31T03:52:34.733Z,31.70
2018-07-31T03:53:34.724Z,27.40
2018-07-31T03:54:34.713Z,24.50
2018-07-31T03:55:34.739Z,26.50
2018-07-31T03:56:34.803Z,24.50
2018-07-31T03:57:34.673Z,27.50
2018-07-31T03:58:34.658Z,25.90
2018-07-31T04:00:07.857Z,32.00
2018-07-31T04:00:34.631Z,26.60
2018-07-31T04:01:34.624Z,28.10
2018-07-31T04:02:34.611Z,28.70
2018-07-31T04:03:34.602Z,29.90
2018-07-31T04:04:34.600Z,26.70
2018-07-31T04:05:34.643Z,25.10
2018-07-31T04:06:34.564Z,29.60
2018-07-31T04:07:34.552Z,27.70
2018-07-31T04:08:34.541Z,29.40
2018-07-31T04:09:34.525Z,27.70
2018-07-31T04:10:34.512Z,21.90
2018-07-31T04:11:34.509Z,31.90
2018-07-31T04:12:34.517Z,28.20
2018-07-31T04:13:34.481Z,29.30
2018-07-31T04:14:34.466Z,29.40
2018-07-31T04:15:34.459Z,28.40
2018-07-31T04:16:34.443Z,25.30
2018-07-31T04:17:34.430Z,24.10
2018-07-31T04:18:34.437Z,24.10
2018-07-31T04:19:34.406Z,29.00
2018-07-31T04:20:34.396Z,27.60
2018-07-31T04:21:34.379Z,24.10
2018-07-31T04:22:34.369Z,31.10
2018-07-31T04:23:34.356Z,26.50
2018-07-31T04:24:34.352Z,24.20
2018-07-31T04:25:34.335Z,24.20
2018-07-31T04:26:34.322Z,24.30
2018-07-31T04:27:34.309Z,26.60
2018-07-31T04:28:34.299Z,22.00
2018-07-31T04:29:34.283Z,25.30
2018-07-31T04:30:34.274Z,26.20
2018-07-31T04:31:34.261Z,24.90
2018-07-31T04:32:34.259Z,23.10
2018-07-31T04:33:34.236Z,24.30
2018-07-31T04:34:34.228Z,24.30
2018-07-31T04:35:34.215Z,25.80
2018-07-31T04:36:34.221Z,24.80
2018-07-31T04:37:34.188Z,24.90
2018-07-31T04:38:34.177Z,26.20
2018-07-31T04:39:34.169Z,24.00
2018-07-31T04:40:34.153Z,20.70
2018-07-31T04:41:34.142Z,24.20
2018-07-31T04:42:34.130Z,25.50
2018-07-31T04:43:34.118Z,27.90
2018-07-31T04:44:34.110Z,24.00
2018-07-31T04:45:34.092Z,25.60
2018-07-31T04:46:34.079Z,27.90
2018-07-31T04:47:34.070Z,22.60
2018-07-31T04:48:34.056Z,22.00
2018-07-31T04:49:34.046Z,23.50
2018-07-31T04:50:34.036Z,27.20
2018-07-31T04:51:34.030Z,26.70
2018-07-31T04:52:34.139Z,24.00
2018-07-31T04:53:33.997Z,22.70
2018-07-31T04:54:33.986Z,26.90
2018-07-31T04:55:33.986Z,25.90
2018-07-31T04:56:33.965Z,20.90
2018-07-31T04:57:33.957Z,21.60
2018-07-31T04:58:33.938Z,23.50
2018-07-31T04:59:33.927Z,21.90
2018-07-31T05:00:33.914Z,21.30
2018-07-31T05:01:33.903Z,22.20
2018-07-31T05:02:33.894Z,19.90
2018-07-31T05:03:33.879Z,25.10
2018-07-31T05:04:33.874Z,26.80
2018-07-31T05:05:33.860Z,24.40
2018-07-31T05:06:33.844Z,26.20
2018-07-31T05:07:33.834Z,21.00
2018-07-31T05:08:33.930Z,22.30
2018-07-31T05:09:33.811Z,23.00
2018-07-31T05:10:33.796Z,22.80
2018-07-31T05:11:33.784Z,19.90
2018-07-31T05:12:33.783Z,27.00
2018-07-31T05:13:33.774Z,23.60
2018-07-31T05:14:33.751Z,20.00
2018-07-31T05:15:33.741Z,21.60
2018-07-31T05:16:33.726Z,23.50
2018-07-31T05:17:33.717Z,24.10
2018-07-31T05:18:33.703Z,20.70
2018-07-31T05:19:33.743Z,23.70
2018-07-31T05:20:33.680Z,21.60
2018-07-31T05:21:33.670Z,20.30
2018-07-31T05:22:33.657Z,22.60
2018-07-31T05:23:33.645Z,20.80
2018-07-31T05:24:33.633Z,20.40
2018-07-31T05:25:33.623Z,22.70
2018-07-31T05:26:33.620Z,20.10
2018-07-31T05:27:33.598Z,21.20
2018-07-31T05:28:33.592Z,18.10
2018-07-31T05:29:33.577Z,22.20
2018-07-31T05:30:33.567Z,21.00
2018-07-31T05:31:33.556Z,22.30
2018-07-31T05:32:33.573Z,19.30
2018-07-31T05:33:33.535Z,20.30
2018-07-31T05:34:33.520Z,18.20
2018-07-31T05:35:33.562Z,23.80
2018-07-31T05:36:33.501Z,17.90
2018-07-31T05:37:33.486Z,17.90
2018-07-31T05:38:33.476Z,19.90
2018-07-31T05:39:33.500Z,19.50
2018-07-31T05:40:33.453Z,18.10
2018-07-31T05:41:33.443Z,20.80
2018-07-31T05:42:33.449Z,19.10
2018-07-31T05:43:33.419Z,17.60
2018-07-31T05:44:33.410Z,17.70
2018-07-31T05:45:33.400Z,15.10
2018-07-31T05:46:33.393Z,13.90
2018-07-31T05:47:33.388Z,20.50
2018-07-31T05:48:33.514Z,18.00
2018-07-31T05:49:33.370Z,14.90
2018-07-31T05:50:33.352Z,16.50
2018-07-31T05:51:33.388Z,17.40
2018-07-31T05:52:33.333Z,14.00
2018-07-31T05:53:33.326Z,17.70
2018-07-31T05:54:33.320Z,14.40
2018-07-31T05:55:33.309Z,15.20
2018-07-31T05:56:33.301Z,14.90
2018-07-31T05:57:33.378Z,13.80
2018-07-31T05:58:33.288Z,14.40
2018-07-31T05:59:33.281Z,17.70
2018-07-31T06:00:33.271Z,12.40
2018-07-31T06:01:33.268Z,13.70
2018-07-31T06:02:33.276Z,14.30
2018-07-31T06:03:33.302Z,17.20
2018-07-31T06:04:33.310Z,14.60
2018-07-31T06:05:33.240Z,15.60
2018-07-31T06:06:33.254Z,15.50
2018-07-31T06:07:33.228Z,15.10
2018-07-31T06:08:33.233Z,16.60
2018-07-31T06:09:33.384Z,14.60
2018-07-31T06:10:33.213Z,14.00
2018-07-31T06:11:33.610Z,12.40
2018-07-31T06:12:33.214Z,13.00
2018-07-31T06:13:33.197Z,17.00
2018-07-31T06:14:33.206Z,15.80
2018-07-31T06:15:33.197Z,14.20
2018-07-31T06:16:33.182Z,19.10
2018-07-31T06:17:33.181Z,14.10
2018-07-31T06:18:33.175Z,15.80
2018-07-31T06:19:33.176Z,14.00
2018-07-31T06:20:33.172Z,13.20
2018-07-31T06:21:33.165Z,15.80
2018-07-31T06:22:33.280Z,14.80
2018-07-31T06:23:33.160Z,14.70
2018-07-31T06:24:33.160Z,18.00
2018-07-31T06:25:33.244Z,13.40
2018-07-31T06:26:33.157Z,16.00
2018-07-31T06:27:33.156Z,13.00
2018-07-31T06:28:33.147Z,13.50
2018-07-31T06:29:33.163Z,14.30
2018-07-31T06:30:33.144Z,15.20
2018-07-31T06:31:33.140Z,16.80
2018-07-31T06:32:33.138Z,13.80
2018-07-31T06:33:33.138Z,15.70
2018-07-31T06:34:33.135Z,14.50
2018-07-31T06:35:33.140Z,14.30
2018-07-31T06:36:33.141Z,17.70
2018-07-31T06:37:33.133Z,17.70
2018-07-31T06:38:33.133Z,16.50
2018-07-31T06:39:33.131Z,15.20
2018-07-31T06:40:33.189Z,13.50
2018-07-31T06:41:33.136Z,14.20
2018-07-31T06:42:33.128Z,15.70
2018-07-31T06:43:33.211Z,13.80
2018-07-31T06:44:33.125Z,13.40
2018-07-31T06:45:33.125Z,16.70
2018-07-31T06:46:33.125Z,16.80
2018-07-31T06:47:33.123Z,16.90
2018-07-31T06:48:33.123Z,13.70
2018-07-31T06:49:33.126Z,15.80
2018-07-31T06:50:33.125Z,15.80
2018-07-31T06:51:33.205Z,15.50
2018-07-31T06:52:33.122Z,12.50
2018-07-31T06:53:33.121Z,16.20
2018-07-31T06:54:33.122Z,13.10
2018-07-31T06:55:33.119Z,18.20
2018-07-31T06:56:33.124Z,14.40
2018-07-31T06:57:33.122Z,19.20
2018-07-31T06:58:33.120Z,16.60
2018-07-31T06:59:33.120Z,17.30
2018-07-31T07:00:33.120Z,14.70
2018-07-31T07:01:33.120Z,20.60
2018-07-31T07:02:33.115Z,14.90
2018-07-31T07:03:33.124Z,13.60
2018-07-31T07:04:33.118Z,13.30
2018-07-31T07:05:33.113Z,16.90
2018-07-31T07:06:33.112Z,12.10
2018-07-31T07:07:33.112Z,14.10
2018-07-31T07:08:33.109Z,13.50
2018-07-31T07:09:33.110Z,14.90
2018-07-31T07:10:33.109Z,14.30
2018-07-31T07:11:33.108Z,13.50
2018-07-31T07:12:33.143Z,14.60
2018-07-31T07:13:33.110Z,17.40
2018-07-31T07:14:33.101Z,18.10
2018-07-31T07:15:33.145Z,15.50
2018-07-31T07:16:33.101Z,20.10
2018-07-31T07:17:33.093Z,17.80
2018-07-31T07:18:33.096Z,13.50
2018-07-31T07:19:33.089Z,13.10
2018-07-31T07:20:33.087Z,15.00
2018-07-31T07:21:33.084Z,14.20
2018-07-31T07:22:33.095Z,16.50
2018-07-31T07:23:33.087Z,15.90
2018-07-31T07:24:33.076Z,12.40
2018-07-31T07:25:33.076Z,13.60
2018-07-31T07:26:33.078Z,13.30
2018-07-31T07:27:33.071Z,12.90
2018-07-31T07:28:33.067Z,15.90
2018-07-31T07:29:33.065Z,15.20
2018-07-31T07:30:33.063Z,14.20
2018-07-31T07:31:33.060Z,15.80
2018-07-31T07:32:33.065Z,14.10
2018-07-31T07:33:33.096Z,15.90
2018-07-31T07:34:33.057Z,18.20
2018-07-31T07:35:33.246Z,14.70
2018-07-31T07:36:33.045Z,15.60
2018-07-31T07:37:33.043Z,15.40
2018-07-31T07:38:33.096Z,15.60
2018-07-31T07:39:33.040Z,14.70
2018-07-31T07:40:33.036Z,13.80
2018-07-31T07:41:33.042Z,17.80
2018-07-31T07:42:33.027Z,12.40
2018-07-31T07:43:33.026Z,17.70
2018-07-31T07:44:33.034Z,13.20
2018-07-31T07:45:33.017Z,16.10
2018-07-31T07:46:33.014Z,14.10
2018-07-31T07:47:33.007Z,12.60
2018-07-31T07:48:33.042Z,13.70
2018-07-31T07:49:33.011Z,13.00
2018-07-31T07:50:33.004Z,15.70
2018-07-31T07:51:33.000Z,11.80
2018-07-31T07:52:32.988Z,13.80
2018-07-31T07:53:32.987Z,15.50
2018-07-31T07:54:32.983Z,15.40
2018-07-31T07:55:32.978Z,13.90
2018-07-31T07:56:32.978Z,10.50
2018-07-31T07:57:32.972Z,13.80
2018-07-31T07:58:32.975Z,14.30
2018-07-31T07:59:32.963Z,14.10
2018-07-31T08:00:32.969Z,12.00
2018-07-31T08:01:32.958Z,14.80
2018-07-31T08:02:32.951Z,12.30
2018-07-31T08:03:32.947Z,11.60
2018-07-31T08:04:32.945Z,14.60
2018-07-31T08:05:32.942Z,11.30
2018-07-31T08:06:32.941Z,15.10
2018-07-31T08:07:32.932Z,15.50
2018-07-31T08:08:33.243Z,14.10
2018-07-31T08:09:33.012Z,10.20
2018-07-31T08:10:32.920Z,15.70
2018-07-31T08:11:32.913Z,10.70
2018-07-31T08:12:32.969Z,13.50
2018-07-31T08:13:32.904Z,13.10
2018-07-31T08:14:32.900Z,13.40
2018-07-31T08:15:32.896Z,16.10
2018-07-31T08:16:32.890Z,12.70
2018-07-31T08:17:32.897Z,12.80
2018-07-31T08:18:32.882Z,10.40
2018-07-31T08:19:32.886Z,12.50
2018-07-31T08:20:32.880Z,8.00
2018-07-31T08:21:32.870Z,11.10
2018-07-31T08:22:32.917Z,10.30
2018-07-31T08:23:32.860Z,11.60
2018-07-31T08:24:32.857Z,10.90
2018-07-31T08:25:32.898Z,9.90
2018-07-31T08:26:32.903Z,9.40
2018-07-31T08:27:32.842Z,12.50
2018-07-31T08:28:32.839Z,10.90
2018-07-31T08:30:32.828Z,9.10
2018-07-31T08:31:32.829Z,13.30
2018-07-31T08:32:32.817Z,10.40
2018-07-31T08:33:32.864Z,10.60
2018-07-31T08:34:32.824Z,9.20
2018-07-31T08:35:32.800Z,10.60
2018-07-31T08:36:32.800Z,10.10
2018-07-31T08:37:32.791Z,9.10
2018-07-31T08:38:32.787Z,10.20
2018-07-31T08:39:32.788Z,10.50
2018-07-31T08:40:32.779Z,10.20
2018-07-31T08:41:32.778Z,11.40
2018-07-31T08:42:32.767Z,10.90
2018-07-31T08:43:32.888Z,14.10
2018-07-31T08:44:32.756Z,13.40
2018-07-31T08:45:32.749Z,12.80
2018-07-31T08:46:32.752Z,10.10
2018-07-31T08:47:32.739Z,10.30
2018-07-31T08:48:32.735Z,10.20
2018-07-31T08:49:32.728Z,11.30
2018-07-31T08:50:32.725Z,12.90
2018-07-31T08:51:32.719Z,10.80
2018-07-31T08:52:32.715Z,10.00
2018-07-31T08:53:32.707Z,9.10
2018-07-31T08:54:32.704Z,11.80
2018-07-31T08:55:32.701Z,9.50
2018-07-31T08:56:32.705Z,9.70
2018-07-31T08:57:32.687Z,10.90
2018-07-31T08:58:32.685Z,10.80
2018-07-31T08:59:32.757Z,8.50
2018-07-31T09:00:32.669Z,15.60
2018-07-31T09:01:32.667Z,12.70
2018-07-31T09:02:32.670Z,12.90
2018-07-31T09:03:32.656Z,14.50
2018-07-31T09:04:32.653Z,9.60
2018-07-31T09:05:32.645Z,13.00
2018-07-31T09:06:32.643Z,8.80
2018-07-31T09:07:32.640Z,9.90
2018-07-31T09:08:32.701Z,13.20
2018-07-31T09:09:32.623Z,10.20
2018-07-31T09:10:32.699Z,6.40
2018-07-31T09:11:32.614Z,10.90
2018-07-31T09:12:32.615Z,8.40
2018-07-31T09:13:32.605Z,10.00
2018-07-31T09:14:32.602Z,7.70
2018-07-31T09:15:32.693Z,10.50
2018-07-31T09:16:32.587Z,9.60
2018-07-31T09:17:32.621Z,7.10
2018-07-31T09:18:32.577Z,11.50
2018-07-31T09:19:32.579Z,11.60
2018-07-31T09:20:32.568Z,12.10
2018-07-31T09:21:32.564Z,13.30
2018-07-31T09:22:32.560Z,6.90
2018-07-31T09:23:32.558Z,6.50
2018-07-31T09:24:32.681Z,7.20
2018-07-31T09:25:32.555Z,9.30
2018-07-31T09:26:32.552Z,8.40
2018-07-31T09:27:32.541Z,7.50
2018-07-31T09:28:32.534Z,7.50
2018-07-31T09:29:32.533Z,9.50
2018-07-31T09:30:32.544Z,6.70
2018-07-31T09:31:32.528Z,8.90
2018-07-31T09:32:32.523Z,11.40
2018-07-31T09:33:32.635Z,8.70
2018-07-31T09:34:32.518Z,6.70
2018-07-31T09:35:32.513Z,9.20
2018-07-31T09:36:32.535Z,7.80
2018-07-31T09:37:32.503Z,9.30
2018-07-31T09:38:32.505Z,9.60
2018-07-31T09:39:32.497Z,9.90
2018-07-31T09:40:32.496Z,7.20
2018-07-31T09:41:32.489Z,11.90
2018-07-31T09:42:32.492Z,5.60
2018-07-31T09:43:32.481Z,9.60
2018-07-31T09:44:32.487Z,5.10
2018-07-31T09:45:32.474Z,8.80
2018-07-31T09:46:32.606Z,9.50
2018-07-31T09:47:32.469Z,9.10
2018-07-31T09:48:32.499Z,9.10
2018-07-31T09:49:32.460Z,7.80
2018-07-31T09:50:32.466Z,8.80
2018-07-31T09:51:32.459Z,7.50
2018-07-31T09:52:32.462Z,8.10
2018-07-31T09:53:32.454Z,7.20
2018-07-31T09:54:32.459Z,11.80
2018-07-31T09:55:32.447Z,7.10
2018-07-31T09:56:32.454Z,7.30
2018-07-31T09:57:32.443Z,6.70
2018-07-31T09:58:32.442Z,11.30
2018-07-31T09:59:32.505Z,7.90
2018-07-31T10:00:32.438Z,6.10
2018-07-31T10:01:32.486Z,7.40
2018-07-31T10:02:32.483Z,7.20
2018-07-31T10:03:32.433Z,5.80
2018-07-31T10:04:32.429Z,8.40
2018-07-31T10:05:32.456Z,15.40
2018-07-31T10:06:32.431Z,10.60
2018-07-31T10:07:32.436Z,9.20
2018-07-31T10:08:32.431Z,6.20
2018-07-31T10:09:32.424Z,6.70
2018-07-31T10:10:32.439Z,8.40
2018-07-31T10:11:32.426Z,9.00
2018-07-31T10:12:32.524Z,7.10
2018-07-31T10:13:32.424Z,8.00
2018-07-31T10:14:32.437Z,7.20
2018-07-31T10:15:32.472Z,6.10
2018-07-31T10:16:32.456Z,6.20
2018-07-31T10:17:32.435Z,8.10
2018-07-31T10:18:32.438Z,5.60
2018-07-31T10:19:32.441Z,4.60
2018-07-31T10:20:32.456Z,7.10
2018-07-31T10:21:32.457Z,4.60
2018-07-31T10:22:32.469Z,6.90
2018-07-31T10:23:32.453Z,6.60
2018-07-31T10:24:32.509Z,6.40
2018-07-31T10:25:32.466Z,6.50
2018-07-31T10:26:32.457Z,5.30
2018-07-31T10:27:32.461Z,6.00
2018-07-31T10:28:32.463Z,5.40
2018-07-31T10:29:32.464Z,7.50
2018-07-31T10:30:32.688Z,7.90
2018-07-31T10:31:32.466Z,8.70
2018-07-31T10:32:32.467Z,8.10
2018-07-31T10:33:32.470Z,4.70
2018-07-31T10:34:32.484Z,8.10
2018-07-31T10:35:32.482Z,6.40
2018-07-31T10:36:32.477Z,6.40
2018-07-31T10:37:32.522Z,7.00
2018-07-31T10:38:32.481Z,7.80
2018-07-31T10:39:32.482Z,7.80
2018-07-31T10:40:32.483Z,7.30
2018-07-31T10:41:32.491Z,4.20
2018-07-31T10:42:32.490Z,8.60
2018-07-31T10:43:32.633Z,4.30
2018-07-31T10:44:32.509Z,7.80
2018-07-31T10:45:32.501Z,6.00
2018-07-31T10:46:32.502Z,3.60
2018-07-31T10:47:32.506Z,4.50
2018-07-31T10:48:32.508Z,7.00
2018-07-31T10:49:32.511Z,6.60
2018-07-31T10:50:32.542Z,5.80
2018-07-31T10:51:32.521Z,6.10
2018-07-31T10:52:32.534Z,6.70
2018-07-31T10:53:32.530Z,8.50
2018-07-31T10:54:32.525Z,10.30
2018-07-31T10:55:32.546Z,6.90
2018-07-31T10:56:32.593Z,5.50
2018-07-31T10:57:32.533Z,6.00
2018-07-31T10:58:32.638Z,5.90
2018-07-31T10:59:32.572Z,7.20
2018-07-31T11:00:32.534Z,10.00
2018-07-31T11:01:35.151Z,5.50
2018-07-31T11:02:32.532Z,7.20
2018-07-31T11:03:32.534Z,4.90
2018-07-31T11:05:17.488Z,7.40
2018-07-31T11:06:17.496Z,6.30
2018-07-31T11:07:17.489Z,7.60
2018-07-31T11:08:17.488Z,6.80
2018-07-31T11:09:17.489Z,4.40
2018-07-31T11:10:17.497Z,7.60
2018-07-31T11:11:17.488Z,8.20
2018-07-31T11:12:17.488Z,6.40
2018-07-31T11:13:17.545Z,6.70
2018-07-31T11:14:17.490Z,7.80
2018-07-31T11:15:17.588Z,8.10
2018-07-31T11:16:17.489Z,7.60
2018-07-31T11:17:17.498Z,5.00
2018-07-31T11:18:17.490Z,6.70
2018-07-31T11:19:17.495Z,7.10
2018-07-31T11:20:17.503Z,4.80
2018-07-31T11:21:17.510Z,5.00
2018-07-31T11:22:17.495Z,7.50
2018-07-31T11:23:17.498Z,7.30
2018-07-31T11:24:17.508Z,6.60
2018-07-31T11:25:17.501Z,5.60
2018-07-31T11:26:17.516Z,6.30
2018-07-31T11:27:17.509Z,6.50
2018-07-31T11:28:17.583Z,6.50
2018-07-31T11:29:17.524Z,8.40
2018-07-31T11:30:17.519Z,8.70
2018-07-31T11:31:17.519Z,10.20
2018-07-31T11:32:17.523Z,5.20
2018-07-31T11:33:17.525Z,6.80
2018-07-31T11:34:17.527Z,8.30
2018-07-31T11:35:17.538Z,9.00
2018-07-31T11:36:17.544Z,6.70
2018-07-31T11:37:17.535Z,6.90
2018-07-31T11:38:17.551Z,5.50
2018-07-31T11:39:17.544Z,5.70
2018-07-31T11:40:17.545Z,7.40
2018-07-31T11:41:17.563Z,7.30
2018-07-31T11:42:17.549Z,6.70
2018-07-31T11:43:17.570Z,9.70
2018-07-31T11:44:17.555Z,7.80
2018-07-31T11:45:17.565Z,7.60
2018-07-31T11:46:17.614Z,6.60
2018-07-31T11:47:17.564Z,5.50
2018-07-31T11:48:17.568Z,6.50
2018-07-31T11:49:17.573Z,7.10
2018-07-31T11:50:17.578Z,10.10
2018-07-31T11:51:17.574Z,9.70
2018-07-31T11:52:17.580Z,8.40
2018-07-31T11:53:17.580Z,5.10
2018-07-31T11:54:17.583Z,8.10
2018-07-31T11:55:17.586Z,8.30
2018-07-31T11:56:17.744Z,6.50
2018-07-31T11:57:17.590Z,5.90
2018-07-31T11:58:17.605Z,7.50
2018-07-31T11:59:17.595Z,7.20
2018-07-31T12:00:17.602Z,7.60
2018-07-31T12:01:17.600Z,9.50
2018-07-31T12:02:17.610Z,7.00
2018-07-31T12:03:17.610Z,8.90
2018-07-31T12:04:17.623Z,4.70
2018-07-31T12:05:17.611Z,11.60
2018-07-31T12:06:17.667Z,6.90
2018-07-31T12:07:17.605Z,6.50
2018-07-31T12:08:17.606Z,5.30
2018-07-31T12:09:17.653Z,7.50
2018-07-31T12:10:17.605Z,5.30
2018-07-31T12:11:17.610Z,6.50
2018-07-31T12:12:17.612Z,7.60
2018-07-31T12:13:17.602Z,4.90
2018-07-31T12:14:17.602Z,4.80
2018-07-31T12:15:17.619Z,5.50
2018-07-31T12:16:17.602Z,5.20
2018-07-31T12:17:17.609Z,3.90
2018-07-31T12:18:17.610Z,7.70
2018-07-31T12:19:17.617Z,8.40
2018-07-31T12:20:17.607Z,5.00
2018-07-31T12:21:17.593Z,7.50
2018-07-31T12:22:17.642Z,6.70
2018-07-31T12:23:17.588Z,7.70
2018-07-31T12:24:17.583Z,4.40
2018-07-31T12:25:17.581Z,4.70
2018-07-31T12:26:17.578Z,4.40
2018-07-31T12:27:17.584Z,5.30
2018-07-31T12:28:17.574Z,7.40
2018-07-31T12:29:17.570Z,8.80
2018-07-31T12:30:17.583Z,6.40
2018-07-31T12:31:17.565Z,5.60
2018-07-31T12:32:17.579Z,8.30
2018-07-31T12:33:17.568Z,6.20
2018-07-31T12:34:17.553Z,7.90
2018-07-31T12:35:17.556Z,8.90
2018-07-31T12:36:17.549Z,6.20
2018-07-31T12:37:17.644Z,6.50
2018-07-31T12:38:17.616Z,6.00
2018-07-31T12:39:17.542Z,7.00
2018-07-31T12:40:17.572Z,8.30
2018-07-31T12:41:17.546Z,5.70
2018-07-31T12:42:17.526Z,6.20
2018-07-31T12:43:17.526Z,7.40
2018-07-31T12:44:17.521Z,7.10
2018-07-31T12:45:17.516Z,7.50
2018-07-31T12:46:17.516Z,4.80
2018-07-31T12:47:17.509Z,5.60
2018-07-31T12:48:17.504Z,5.20
2018-07-31T12:49:17.500Z,5.30
2018-07-31T12:50:17.501Z,6.20
2018-07-31T12:51:17.509Z,5.70
2018-07-31T12:52:17.505Z,5.00
2018-07-31T12:53:17.611Z,6.90
2018-07-31T12:54:17.484Z,5.60
2018-07-31T12:55:17.479Z,8.30
2018-07-31T12:56:17.474Z,7.90
2018-07-31T12:57:17.471Z,4.70
2018-07-31T12:58:17.472Z,4.40
2018-07-31T12:59:17.465Z,5.70
2018-07-31T13:00:17.463Z,5.10
2018-07-31T13:01:17.455Z,5.90
2018-07-31T13:02:17.454Z,9.20
2018-07-31T13:03:17.455Z,4.20
2018-07-31T13:04:17.445Z,7.50
2018-07-31T13:05:17.442Z,6.60
2018-07-31T13:06:17.494Z,8.00
2018-07-31T13:07:17.433Z,5.40